sensor_id;sensor_type;location;lat;lon;timestamp;temperature;humidity
21778;DHT22;11050;52.222;20.916;2022-09-09T00:00:42;13.20;99.90
21778;DHT22;11050;52.222;20.916;2022-09-09T00:03:17;13.10;99.90
21778;DHT22;11050;52.222;20.916;2022-09-09T00:12:15;12.80;99.90
21778;DHT22;11050;52.222;20.916;2022-09-09T00:15:02;12.80;99.90
21778;DHT22;11050;52.222;20.916;2022-09-09T00:20:38;12.60;99.90
21778;DHT22;11050;52.222;20.916;2022-09-09T00:23:20;12.50;99.90
21778;DHT22;11050;52.222;20.916;2022-09-09T00:28:39;12.40;99.90
21778;DHT22;11050;52.222;20.916;2022-09-09T00:31:24;12.40;99.90
21778;DHT22;11050;52.222;20.916;2022-09-09T00:33:53;12.30;99.90
21778;DHT22;11050;52.222;20.916;2022-09-09T00:36:26;12.30;99.90
21778;DHT22;11050;52.222;20.916;2022-09-09T00:38:58;12.20;99.90
21778;DHT22;11050;52.222;20.916;2022-09-09T00:44:36;12.20;99.90
21778;DHT22;11050;52.222;20.916;2022-09-09T00:55:19;12.00;99.90
21778;DHT22;11050;52.222;20.916;2022-09-09T00:57:48;12.00;99.90
21778;DHT22;11050;52.222;20.916;2022-09-09T01:00:21;12.00;99.90
21778;DHT22;11050;52.222;20.916;2022-09-09T01:09:18;12.00;99.90
21778;DHT22;11050;52.222;20.916;2022-09-09T01:15:10;11.90;99.90
21778;DHT22;11050;52.222;20.916;2022-09-09T01:18:00;11.90;99.90
21778;DHT22;11050;52.222;20.916;2022-09-09T01:24:13;11.90;99.90
21778;DHT22;11050;52.222;20.916;2022-09-09T01:26:56;11.90;99.90
21778;DHT22;11050;52.222;20.916;2022-09-09T01:29:26;11.90;99.90
21778;DHT22;11050;52.222;20.916;2022-09-09T01:31:56;11.90;99.90
21778;DHT22;11050;52.222;20.916;2022-09-09T01:34:30;11.90;99.90
21778;DHT22;11050;52.222;20.916;2022-09-09T01:37:12;11.90;99.90
21778;DHT22;11050;52.222;20.916;2022-09-09T01:39:40;11.90;99.90
21778;DHT22;11050;52.222;20.916;2022-09-09T01:42:10;11.90;99.90
21778;DHT22;11050;52.222;20.916;2022-09-09T01:44:39;11.90;99.90
21778;DHT22;11050;52.222;20.916;2022-09-09T01:47:05;11.90;99.90
21778;DHT22;11050;52.222;20.916;2022-09-09T01:49:32;11.90;99.90
21778;DHT22;11050;52.222;20.916;2022-09-09T01:51:58;11.90;99.90
21778;DHT22;11050;52.222;20.916;2022-09-09T01:54:28;11.90;99.90
21778;DHT22;11050;52.222;20.916;2022-09-09T01:57:27;12.00;99.90
21778;DHT22;11050;52.222;20.916;2022-09-09T02:00:10;12.00;99.90
21778;DHT22;11050;52.222;20.916;2022-09-09T02:08:07;11.90;99.90
21778;DHT22;11050;52.222;20.916;2022-09-09T02:13:17;11.90;99.90
21778;DHT22;11050;52.222;20.916;2022-09-09T02:15:53;11.90;99.90
21778;DHT22;11050;52.222;20.916;2022-09-09T02:19:11;11.90;99.90
21778;DHT22;11050;52.222;20.916;2022-09-09T02:21:30;12.00;99.90
21778;DHT22;11050;52.222;20.916;2022-09-09T02:23:59;12.00;99.90
21778;DHT22;11050;52.222;20.916;2022-09-09T02:26:33;12.00;99.90
21778;DHT22;11050;52.222;20.916;2022-09-09T02:29:05;12.00;99.90
21778;DHT22;11050;52.222;20.916;2022-09-09T02:31:37;12.00;99.90
21778;DHT22;11050;52.222;20.916;2022-09-09T02:34:06;12.00;99.90
21778;DHT22;11050;52.222;20.916;2022-09-09T02:36:37;11.90;99.90
21778;DHT22;11050;52.222;20.916;2022-09-09T02:39:07;12.00;99.90
21778;DHT22;11050;52.222;20.916;2022-09-09T02:41:38;12.00;99.90
21778;DHT22;11050;52.222;20.916;2022-09-09T02:44:19;12.00;99.90
21778;DHT22;11050;52.222;20.916;2022-09-09T02:47:10;12.00;99.90
21778;DHT22;11050;52.222;20.916;2022-09-09T02:50:07;12.00;99.90
21778;DHT22;11050;52.222;20.916;2022-09-09T02:53:11;12.00;99.90
21778;DHT22;11050;52.222;20.916;2022-09-09T02:55:48;12.00;99.90
21778;DHT22;11050;52.222;20.916;2022-09-09T02:58:20;12.00;99.90
21778;DHT22;11050;52.222;20.916;2022-09-09T03:00:49;12.00;99.90
21778;DHT22;11050;52.222;20.916;2022-09-09T03:03:17;12.00;99.90
21778;DHT22;11050;52.222;20.916;2022-09-09T03:05:44;12.00;99.90
21778;DHT22;11050;52.222;20.916;2022-09-09T03:08:12;12.00;99.90
21778;DHT22;11050;52.222;20.916;2022-09-09T03:10:38;12.00;99.90
21778;DHT22;11050;52.222;20.916;2022-09-09T03:13:05;12.00;99.90
21778;DHT22;11050;52.222;20.916;2022-09-09T03:15:32;12.00;99.90
21778;DHT22;11050;52.222;20.916;2022-09-09T03:17:58;12.00;99.90
21778;DHT22;11050;52.222;20.916;2022-09-09T03:20:26;12.00;99.90
21778;DHT22;11050;52.222;20.916;2022-09-09T03:22:54;12.00;99.90
21778;DHT22;11050;52.222;20.916;2022-09-09T03:25:21;12.00;99.90
21778;DHT22;11050;52.222;20.916;2022-09-09T03:27:51;12.00;99.90
21778;DHT22;11050;52.222;20.916;2022-09-09T03:30:21;12.10;99.90
21778;DHT22;11050;52.222;20.916;2022-09-09T03:32:47;12.00;99.90
21778;DHT22;11050;52.222;20.916;2022-09-09T03:35:13;12.00;99.90
21778;DHT22;11050;52.222;20.916;2022-09-09T03:37:40;12.00;99.90
21778;DHT22;11050;52.222;20.916;2022-09-09T03:40:07;12.00;99.90
21778;DHT22;11050;52.222;20.916;2022-09-09T03:42:35;12.00;99.90
21778;DHT22;11050;52.222;20.916;2022-09-09T03:45:04;12.10;99.90
21778;DHT22;11050;52.222;20.916;2022-09-09T03:47:30;12.10;99.90
21778;DHT22;11050;52.222;20.916;2022-09-09T03:49:56;12.10;99.90
21778;DHT22;11050;52.222;20.916;2022-09-09T03:52:22;12.00;99.90
21778;DHT22;11050;52.222;20.916;2022-09-09T03:54:50;12.10;99.90
21778;DHT22;11050;52.222;20.916;2022-09-09T03:57:17;12.10;99.90
21778;DHT22;11050;52.222;20.916;2022-09-09T03:59:43;12.10;99.90
21778;DHT22;11050;52.222;20.916;2022-09-09T04:02:09;12.10;99.90
21778;DHT22;11050;52.222;20.916;2022-09-09T04:04:35;12.10;99.90
21778;DHT22;11050;52.222;20.916;2022-09-09T04:07:01;12.10;99.90
21778;DHT22;11050;52.222;20.916;2022-09-09T04:09:27;12.10;99.90
21778;DHT22;11050;52.222;20.916;2022-09-09T04:11:53;12.10;99.90
21778;DHT22;11050;52.222;20.916;2022-09-09T04:14:19;12.10;99.90
21778;DHT22;11050;52.222;20.916;2022-09-09T04:16:45;12.10;99.90
21778;DHT22;11050;52.222;20.916;2022-09-09T04:19:12;12.10;99.90
21778;DHT22;11050;52.222;20.916;2022-09-09T04:21:42;12.10;99.90
21778;DHT22;11050;52.222;20.916;2022-09-09T04:24:08;12.10;99.90
21778;DHT22;11050;52.222;20.916;2022-09-09T04:26:35;12.10;99.90
21778;DHT22;11050;52.222;20.916;2022-09-09T04:29:02;12.10;99.90
21778;DHT22;11050;52.222;20.916;2022-09-09T04:31:29;12.10;99.90
21778;DHT22;11050;52.222;20.916;2022-09-09T04:33:55;12.10;99.90
21778;DHT22;11050;52.222;20.916;2022-09-09T04:36:22;12.10;99.90
21778;DHT22;11050;52.222;20.916;2022-09-09T04:38:48;12.10;99.90
21778;DHT22;11050;52.222;20.916;2022-09-09T04:41:16;12.10;99.90
21778;DHT22;11050;52.222;20.916;2022-09-09T04:43:42;12.20;99.90
21778;DHT22;11050;52.222;20.916;2022-09-09T04:46:09;12.20;99.90
21778;DHT22;11050;52.222;20.916;2022-09-09T04:48:35;12.20;99.90
21778;DHT22;11050;52.222;20.916;2022-09-09T04:51:03;12.20;99.90
21778;DHT22;11050;52.222;20.916;2022-09-09T04:53:32;12.20;99.90
21778;DHT22;11050;52.222;20.916;2022-09-09T04:56:11;12.20;99.90
21778;DHT22;11050;52.222;20.916;2022-09-09T04:58:39;12.20;99.90
21778;DHT22;11050;52.222;20.916;2022-09-09T05:01:19;12.20;99.90
21778;DHT22;11050;52.222;20.916;2022-09-09T05:03:47;12.30;99.90
21778;DHT22;11050;52.222;20.916;2022-09-09T05:06:18;12.30;99.90
21778;DHT22;11050;52.222;20.916;2022-09-09T05:08:45;12.30;99.90
21778;DHT22;11050;52.222;20.916;2022-09-09T05:13:49;12.40;99.90
21778;DHT22;11050;52.222;20.916;2022-09-09T05:16:16;12.40;99.90
21778;DHT22;11050;52.222;20.916;2022-09-09T05:18:43;12.40;99.90
21778;DHT22;11050;52.222;20.916;2022-09-09T05:21:10;12.40;99.90
21778;DHT22;11050;52.222;20.916;2022-09-09T05:23:37;12.40;99.90
21778;DHT22;11050;52.222;20.916;2022-09-09T05:26:04;12.40;99.90
21778;DHT22;11050;52.222;20.916;2022-09-09T05:28:33;12.40;99.90
21778;DHT22;11050;52.222;20.916;2022-09-09T05:31:06;12.40;99.90
21778;DHT22;11050;52.222;20.916;2022-09-09T05:33:38;12.40;99.90
21778;DHT22;11050;52.222;20.916;2022-09-09T05:36:13;12.50;99.90
21778;DHT22;11050;52.222;20.916;2022-09-09T05:38:41;12.50;99.90
21778;DHT22;11050;52.222;20.916;2022-09-09T05:41:08;12.50;99.90
21778;DHT22;11050;52.222;20.916;2022-09-09T05:43:37;12.50;99.90
21778;DHT22;11050;52.222;20.916;2022-09-09T05:46:09;12.50;99.90
21778;DHT22;11050;52.222;20.916;2022-09-09T05:48:44;12.60;99.90
21778;DHT22;11050;52.222;20.916;2022-09-09T05:51:16;12.60;99.90
21778;DHT22;11050;52.222;20.916;2022-09-09T05:53:45;12.50;99.90
21778;DHT22;11050;52.222;20.916;2022-09-09T05:56:16;12.60;99.90
21778;DHT22;11050;52.222;20.916;2022-09-09T05:58:45;12.60;99.90
21778;DHT22;11050;52.222;20.916;2022-09-09T06:01:19;12.60;99.90
21778;DHT22;11050;52.222;20.916;2022-09-09T06:03:48;12.60;99.90
21778;DHT22;11050;52.222;20.916;2022-09-09T06:06:20;12.60;99.90
21778;DHT22;11050;52.222;20.916;2022-09-09T06:08:49;12.70;99.90
21778;DHT22;11050;52.222;20.916;2022-09-09T06:11:22;12.70;99.90
21778;DHT22;11050;52.222;20.916;2022-09-09T06:13:50;12.70;99.90
21778;DHT22;11050;52.222;20.916;2022-09-09T06:16:22;12.80;99.90
21778;DHT22;11050;52.222;20.916;2022-09-09T06:18:51;12.80;99.90
21778;DHT22;11050;52.222;20.916;2022-09-09T06:21:20;12.90;99.90
21778;DHT22;11050;52.222;20.916;2022-09-09T06:23:48;12.80;99.90
21778;DHT22;11050;52.222;20.916;2022-09-09T06:26:18;12.90;99.90
21778;DHT22;11050;52.222;20.916;2022-09-09T06:29:08;12.90;99.90
21778;DHT22;11050;52.222;20.916;2022-09-09T06:31:36;12.90;99.90
21778;DHT22;11050;52.222;20.916;2022-09-09T06:34:05;13.00;99.90
21778;DHT22;11050;52.222;20.916;2022-09-09T06:36:34;13.00;99.90
21778;DHT22;11050;52.222;20.916;2022-09-09T06:39:02;13.10;99.90
21778;DHT22;11050;52.222;20.916;2022-09-09T06:41:31;13.10;99.90
21778;DHT22;11050;52.222;20.916;2022-09-09T06:43:58;13.10;99.90
21778;DHT22;11050;52.222;20.916;2022-09-09T06:46:29;13.10;99.90
21778;DHT22;11050;52.222;20.916;2022-09-09T06:48:58;13.20;99.90
21778;DHT22;11050;52.222;20.916;2022-09-09T06:51:33;13.20;99.90
21778;DHT22;11050;52.222;20.916;2022-09-09T06:54:01;13.20;99.90
21778;DHT22;11050;52.222;20.916;2022-09-09T06:56:36;13.20;99.90
21778;DHT22;11050;52.222;20.916;2022-09-09T06:59:06;13.30;99.90
21778;DHT22;11050;52.222;20.916;2022-09-09T07:01:36;13.30;99.90
21778;DHT22;11050;52.222;20.916;2022-09-09T07:04:04;13.30;99.90
21778;DHT22;11050;52.222;20.916;2022-09-09T07:06:35;13.40;99.90
21778;DHT22;11050;52.222;20.916;2022-09-09T07:09:08;13.40;99.90
21778;DHT22;11050;52.222;20.916;2022-09-09T07:11:43;13.40;99.90
21778;DHT22;11050;52.222;20.916;2022-09-09T07:14:10;13.40;99.90
21778;DHT22;11050;52.222;20.916;2022-09-09T07:16:43;13.40;99.90
21778;DHT22;11050;52.222;20.916;2022-09-09T07:19:11;13.40;99.90
21778;DHT22;11050;52.222;20.916;2022-09-09T07:21:38;13.50;99.90
21778;DHT22;11050;52.222;20.916;2022-09-09T07:24:06;13.50;99.90
21778;DHT22;11050;52.222;20.916;2022-09-09T07:26:33;13.50;99.90
21778;DHT22;11050;52.222;20.916;2022-09-09T07:29:00;13.50;99.90
21778;DHT22;11050;52.222;20.916;2022-09-09T07:31:28;13.60;99.90
21778;DHT22;11050;52.222;20.916;2022-09-09T07:34:00;13.60;99.90
21778;DHT22;11050;52.222;20.916;2022-09-09T07:36:31;13.70;99.90
21778;DHT22;11050;52.222;20.916;2022-09-09T07:39:10;13.70;99.90
21778;DHT22;11050;52.222;20.916;2022-09-09T07:41:46;13.80;99.90
21778;DHT22;11050;52.222;20.916;2022-09-09T07:44:19;13.80;99.90
21778;DHT22;11050;52.222;20.916;2022-09-09T07:46:47;13.90;99.90
21778;DHT22;11050;52.222;20.916;2022-09-09T07:49:13;13.90;99.90
21778;DHT22;11050;52.222;20.916;2022-09-09T07:51:42;14.00;99.90
21778;DHT22;11050;52.222;20.916;2022-09-09T07:54:12;14.10;99.90
21778;DHT22;11050;52.222;20.916;2022-09-09T07:56:41;14.10;99.90
21778;DHT22;11050;52.222;20.916;2022-09-09T07:59:08;14.20;99.90
21778;DHT22;11050;52.222;20.916;2022-09-09T08:01:40;14.20;99.90
21778;DHT22;11050;52.222;20.916;2022-09-09T08:04:12;14.20;99.90
21778;DHT22;11050;52.222;20.916;2022-09-09T08:07:03;14.30;99.90
21778;DHT22;11050;52.222;20.916;2022-09-09T08:09:28;14.30;99.90
21778;DHT22;11050;52.222;20.916;2022-09-09T08:11:55;14.30;99.90
21778;DHT22;11050;52.222;20.916;2022-09-09T08:14:22;14.30;99.90
21778;DHT22;11050;52.222;20.916;2022-09-09T08:16:49;14.30;99.90
21778;DHT22;11050;52.222;20.916;2022-09-09T08:19:16;14.20;99.90
21778;DHT22;11050;52.222;20.916;2022-09-09T08:21:43;14.30;99.90
21778;DHT22;11050;52.222;20.916;2022-09-09T08:24:11;14.30;99.90
21778;DHT22;11050;52.222;20.916;2022-09-09T08:26:41;14.30;99.90
21778;DHT22;11050;52.222;20.916;2022-09-09T08:29:10;14.30;99.90
21778;DHT22;11050;52.222;20.916;2022-09-09T08:31:41;14.30;99.90
21778;DHT22;11050;52.222;20.916;2022-09-09T08:34:08;14.30;99.90
21778;DHT22;11050;52.222;20.916;2022-09-09T08:36:37;14.40;99.90
21778;DHT22;11050;52.222;20.916;2022-09-09T08:39:06;14.40;99.90
21778;DHT22;11050;52.222;20.916;2022-09-09T08:42:28;14.40;99.90
21778;DHT22;11050;52.222;20.916;2022-09-09T08:52:57;14.50;99.90
21778;DHT22;11050;52.222;20.916;2022-09-09T08:55:41;14.50;99.90
21778;DHT22;11050;52.222;20.916;2022-09-09T08:58:18;14.50;99.90
21778;DHT22;11050;52.222;20.916;2022-09-09T09:11:55;14.70;99.90
21778;DHT22;11050;52.222;20.916;2022-09-09T09:14:30;14.80;99.90
21778;DHT22;11050;52.222;20.916;2022-09-09T09:17:15;14.80;99.90
21778;DHT22;11050;52.222;20.916;2022-09-09T09:19:45;14.80;99.90
21778;DHT22;11050;52.222;20.916;2022-09-09T09:30:57;15.00;99.90
21778;DHT22;11050;52.222;20.916;2022-09-09T09:33:31;14.90;99.90
21778;DHT22;11050;52.222;20.916;2022-09-09T09:36:19;15.00;99.90
21778;DHT22;11050;52.222;20.916;2022-09-09T09:38:57;15.00;99.90
21778;DHT22;11050;52.222;20.916;2022-09-09T09:41:42;15.00;99.90
21778;DHT22;11050;52.222;20.916;2022-09-09T09:44:25;15.00;99.90
21778;DHT22;11050;52.222;20.916;2022-09-09T09:46:52;15.00;99.90
21778;DHT22;11050;52.222;20.916;2022-09-09T09:49:18;15.10;99.90
21778;DHT22;11050;52.222;20.916;2022-09-09T09:51:44;15.10;99.90
21778;DHT22;11050;52.222;20.916;2022-09-09T09:56:44;15.20;99.90
21778;DHT22;11050;52.222;20.916;2022-09-09T09:59:36;15.20;99.90
21778;DHT22;11050;52.222;20.916;2022-09-09T10:02:20;15.30;99.90
21778;DHT22;11050;52.222;20.916;2022-09-09T10:05:22;15.30;99.90
21778;DHT22;11050;52.222;20.916;2022-09-09T10:08:20;15.30;99.90
21778;DHT22;11050;52.222;20.916;2022-09-09T10:13:42;15.40;99.90
21778;DHT22;11050;52.222;20.916;2022-09-09T10:16:40;15.40;99.90
21778;DHT22;11050;52.222;20.916;2022-09-09T10:28:31;15.50;99.90
21778;DHT22;11050;52.222;20.916;2022-09-09T10:37:01;15.50;99.90
21778;DHT22;11050;52.222;20.916;2022-09-09T10:39:39;15.50;99.90
21778;DHT22;11050;52.222;20.916;2022-09-09T10:42:12;15.50;99.90
21778;DHT22;11050;52.222;20.916;2022-09-09T10:56:15;15.40;99.90
21778;DHT22;11050;52.222;20.916;2022-09-09T11:02:39;15.50;99.90
21778;DHT22;11050;52.222;20.916;2022-09-09T11:07:36;15.40;99.90
21778;DHT22;11050;52.222;20.916;2022-09-09T11:10:21;15.40;99.90
21778;DHT22;11050;52.222;20.916;2022-09-09T11:12:59;15.40;99.90
21778;DHT22;11050;52.222;20.916;2022-09-09T11:15:36;15.40;99.90
21778;DHT22;11050;52.222;20.916;2022-09-09T11:18:16;15.40;99.90
21778;DHT22;11050;52.222;20.916;2022-09-09T11:20:47;15.40;99.90
21778;DHT22;11050;52.222;20.916;2022-09-09T11:26:28;15.50;99.90
21778;DHT22;11050;52.222;20.916;2022-09-09T11:29:35;15.40;99.90
21778;DHT22;11050;52.222;20.916;2022-09-09T11:38:28;15.60;99.90
21778;DHT22;11050;52.222;20.916;2022-09-09T11:41:06;15.60;99.90
21778;DHT22;11050;52.222;20.916;2022-09-09T11:46:15;15.70;99.90
21778;DHT22;11050;52.222;20.916;2022-09-09T11:48:56;15.70;99.90
21778;DHT22;11050;52.222;20.916;2022-09-09T11:57:14;15.70;99.90
21778;DHT22;11050;52.222;20.916;2022-09-09T11:59:31;15.70;99.90
21778;DHT22;11050;52.222;20.916;2022-09-09T12:02:03;15.70;99.90
21778;DHT22;11050;52.222;20.916;2022-09-09T12:07:54;15.70;99.90
21778;DHT22;11050;52.222;20.916;2022-09-09T12:10:29;15.70;99.90
21778;DHT22;11050;52.222;20.916;2022-09-09T12:13:25;15.70;99.90
21778;DHT22;11050;52.222;20.916;2022-09-09T12:15:53;15.70;99.90
21778;DHT22;11050;52.222;20.916;2022-09-09T12:21:08;15.80;99.90
21778;DHT22;11050;52.222;20.916;2022-09-09T12:24:03;15.80;99.90
21778;DHT22;11050;52.222;20.916;2022-09-09T12:27:21;15.70;99.90
21778;DHT22;11050;52.222;20.916;2022-09-09T12:30:14;15.70;99.90
21778;DHT22;11050;52.222;20.916;2022-09-09T12:32:41;15.70;99.90
21778;DHT22;11050;52.222;20.916;2022-09-09T12:37:58;15.70;99.90
21778;DHT22;11050;52.222;20.916;2022-09-09T12:40:30;15.80;99.90
21778;DHT22;11050;52.222;20.916;2022-09-09T12:42:58;15.80;99.90
21778;DHT22;11050;52.222;20.916;2022-09-09T12:45:31;15.90;99.90
21778;DHT22;11050;52.222;20.916;2022-09-09T12:48:09;16.00;99.90
21778;DHT22;11050;52.222;20.916;2022-09-09T12:50:49;16.00;99.90
21778;DHT22;11050;52.222;20.916;2022-09-09T12:53:29;16.00;99.90
21778;DHT22;11050;52.222;20.916;2022-09-09T12:56:06;16.00;99.90
21778;DHT22;11050;52.222;20.916;2022-09-09T12:58:36;16.00;99.90
21778;DHT22;11050;52.222;20.916;2022-09-09T13:01:04;16.10;99.90
21778;DHT22;11050;52.222;20.916;2022-09-09T13:03:32;16.00;99.90
21778;DHT22;11050;52.222;20.916;2022-09-09T13:06:13;16.10;99.90
21778;DHT22;11050;52.222;20.916;2022-09-09T13:08:49;16.10;99.90
21778;DHT22;11050;52.222;20.916;2022-09-09T13:11:45;16.10;99.90
21778;DHT22;11050;52.222;20.916;2022-09-09T13:17:02;16.20;99.90
21778;DHT22;11050;52.222;20.916;2022-09-09T13:19:34;16.20;99.90
21778;DHT22;11050;52.222;20.916;2022-09-09T13:22:34;16.20;99.90
21778;DHT22;11050;52.222;20.916;2022-09-09T13:25:22;16.20;99.90
21778;DHT22;11050;52.222;20.916;2022-09-09T13:28:03;16.30;99.90
21778;DHT22;11050;52.222;20.916;2022-09-09T13:30:33;16.20;99.90
21778;DHT22;11050;52.222;20.916;2022-09-09T13:35:57;16.20;99.90
21778;DHT22;11050;52.222;20.916;2022-09-09T13:38:25;16.30;99.90
21778;DHT22;11050;52.222;20.916;2022-09-09T13:41:05;16.20;99.90
21778;DHT22;11050;52.222;20.916;2022-09-09T13:43:45;16.20;99.90
21778;DHT22;11050;52.222;20.916;2022-09-09T13:46:34;16.10;99.90
21778;DHT22;11050;52.222;20.916;2022-09-09T13:51:44;16.00;99.90
21778;DHT22;11050;52.222;20.916;2022-09-09T13:54:18;15.90;99.90
21778;DHT22;11050;52.222;20.916;2022-09-09T13:56:45;15.80;99.90
21778;DHT22;11050;52.222;20.916;2022-09-09T13:59:17;15.80;99.90
21778;DHT22;11050;52.222;20.916;2022-09-09T14:01:45;15.70;99.90
21778;DHT22;11050;52.222;20.916;2022-09-09T14:04:11;15.70;99.90
21778;DHT22;11050;52.222;20.916;2022-09-09T14:06:38;15.70;99.90
21778;DHT22;11050;52.222;20.916;2022-09-09T14:09:06;15.60;99.90
21778;DHT22;11050;52.222;20.916;2022-09-09T14:11:32;15.60;99.90
21778;DHT22;11050;52.222;20.916;2022-09-09T14:13:58;15.60;99.90
21778;DHT22;11050;52.222;20.916;2022-09-09T14:16:24;15.50;99.90
21778;DHT22;11050;52.222;20.916;2022-09-09T14:18:53;15.50;99.90
21778;DHT22;11050;52.222;20.916;2022-09-09T14:21:22;15.50;99.90
21778;DHT22;11050;52.222;20.916;2022-09-09T14:23:48;15.40;99.90
21778;DHT22;11050;52.222;20.916;2022-09-09T14:26:14;15.40;99.90
21778;DHT22;11050;52.222;20.916;2022-09-09T14:28:40;15.40;99.90
21778;DHT22;11050;52.222;20.916;2022-09-09T14:31:06;15.40;99.90
21778;DHT22;11050;52.222;20.916;2022-09-09T14:33:33;15.40;99.90
21778;DHT22;11050;52.222;20.916;2022-09-09T14:36:01;15.40;99.90
21778;DHT22;11050;52.222;20.916;2022-09-09T14:38:30;15.40;99.90
21778;DHT22;11050;52.222;20.916;2022-09-09T14:41:00;15.50;99.90
21778;DHT22;11050;52.222;20.916;2022-09-09T14:43:29;15.60;99.90
21778;DHT22;11050;52.222;20.916;2022-09-09T14:46:19;15.60;99.90
21778;DHT22;11050;52.222;20.916;2022-09-09T14:48:45;15.70;99.90
21778;DHT22;11050;52.222;20.916;2022-09-09T14:51:22;15.70;99.90
21778;DHT22;11050;52.222;20.916;2022-09-09T14:53:57;15.80;99.90
21778;DHT22;11050;52.222;20.916;2022-09-09T14:56:27;15.80;99.90
21778;DHT22;11050;52.222;20.916;2022-09-09T14:58:56;15.90;99.90
21778;DHT22;11050;52.222;20.916;2022-09-09T15:01:23;15.90;99.90
21778;DHT22;11050;52.222;20.916;2022-09-09T15:03:57;15.90;99.90
21778;DHT22;11050;52.222;20.916;2022-09-09T15:06:26;15.90;99.90
21778;DHT22;11050;52.222;20.916;2022-09-09T15:08:55;15.90;99.90
21778;DHT22;11050;52.222;20.916;2022-09-09T15:11:27;15.90;99.90
21778;DHT22;11050;52.222;20.916;2022-09-09T15:13:55;15.90;99.90
21778;DHT22;11050;52.222;20.916;2022-09-09T15:16:24;15.80;99.90
21778;DHT22;11050;52.222;20.916;2022-09-09T15:18:53;15.80;99.90
21778;DHT22;11050;52.222;20.916;2022-09-09T15:21:23;15.80;99.90
21778;DHT22;11050;52.222;20.916;2022-09-09T15:23:50;15.80;99.90
21778;DHT22;11050;52.222;20.916;2022-09-09T15:26:17;15.80;99.90
21778;DHT22;11050;52.222;20.916;2022-09-09T15:28:45;15.90;99.90
21778;DHT22;11050;52.222;20.916;2022-09-09T15:31:31;15.90;99.90
21778;DHT22;11050;52.222;20.916;2022-09-09T15:34:02;15.90;99.90
21778;DHT22;11050;52.222;20.916;2022-09-09T15:36:36;15.90;99.90
21778;DHT22;11050;52.222;20.916;2022-09-09T15:39:08;15.90;99.90
21778;DHT22;11050;52.222;20.916;2022-09-09T15:41:38;16.00;99.90
21778;DHT22;11050;52.222;20.916;2022-09-09T15:44:05;16.00;99.90
21778;DHT22;11050;52.222;20.916;2022-09-09T15:46:43;16.00;99.90
21778;DHT22;11050;52.222;20.916;2022-09-09T15:51:50;16.00;99.90
21778;DHT22;11050;52.222;20.916;2022-09-09T15:54:20;16.00;99.90
21778;DHT22;11050;52.222;20.916;2022-09-09T15:56:57;16.00;99.90
21778;DHT22;11050;52.222;20.916;2022-09-09T15:59:25;15.90;99.90
21778;DHT22;11050;52.222;20.916;2022-09-09T16:01:53;15.90;99.90
21778;DHT22;11050;52.222;20.916;2022-09-09T16:04:21;15.90;99.90
21778;DHT22;11050;52.222;20.916;2022-09-09T16:06:52;15.80;99.90
21778;DHT22;11050;52.222;20.916;2022-09-09T16:09:19;15.80;99.90
21778;DHT22;11050;52.222;20.916;2022-09-09T16:11:45;15.80;99.90
21778;DHT22;11050;52.222;20.916;2022-09-09T16:14:13;15.80;99.90
21778;DHT22;11050;52.222;20.916;2022-09-09T16:16:42;15.80;99.90
21778;DHT22;11050;52.222;20.916;2022-09-09T16:19:10;15.70;99.90
21778;DHT22;11050;52.222;20.916;2022-09-09T16:21:46;15.60;99.90
21778;DHT22;11050;52.222;20.916;2022-09-09T16:24:16;15.60;99.90
21778;DHT22;11050;52.222;20.916;2022-09-09T16:26:51;15.60;99.90
21778;DHT22;11050;52.222;20.916;2022-09-09T16:29:20;15.50;99.90
21778;DHT22;11050;52.222;20.916;2022-09-09T16:31:47;15.50;99.90
21778;DHT22;11050;52.222;20.916;2022-09-09T16:34:15;15.50;99.90
21778;DHT22;11050;52.222;20.916;2022-09-09T16:36:43;15.40;99.90
21778;DHT22;11050;52.222;20.916;2022-09-09T16:39:11;15.40;99.90
21778;DHT22;11050;52.222;20.916;2022-09-09T16:41:43;15.40;99.90
21778;DHT22;11050;52.222;20.916;2022-09-09T16:44:11;15.30;99.90
21778;DHT22;11050;52.222;20.916;2022-09-09T16:46:40;15.30;99.90
21778;DHT22;11050;52.222;20.916;2022-09-09T16:49:10;15.30;99.90
21778;DHT22;11050;52.222;20.916;2022-09-09T16:51:40;15.20;99.90
21778;DHT22;11050;52.222;20.916;2022-09-09T16:54:09;15.20;99.90
21778;DHT22;11050;52.222;20.916;2022-09-09T16:56:38;15.10;99.90
21778;DHT22;11050;52.222;20.916;2022-09-09T16:59:16;15.10;99.90
21778;DHT22;11050;52.222;20.916;2022-09-09T17:01:45;15.10;99.90
21778;DHT22;11050;52.222;20.916;2022-09-09T17:04:15;15.00;99.90
21778;DHT22;11050;52.222;20.916;2022-09-09T17:06:50;15.00;99.90
21778;DHT22;11050;52.222;20.916;2022-09-09T17:09:18;15.00;99.90
21778;DHT22;11050;52.222;20.916;2022-09-09T17:11:46;15.00;99.90
21778;DHT22;11050;52.222;20.916;2022-09-09T17:14:15;14.90;99.90
21778;DHT22;11050;52.222;20.916;2022-09-09T17:16:43;14.90;99.90
21778;DHT22;11050;52.222;20.916;2022-09-09T17:19:09;14.90;99.90
21778;DHT22;11050;52.222;20.916;2022-09-09T17:21:36;14.80;99.90
21778;DHT22;11050;52.222;20.916;2022-09-09T17:24:02;14.80;99.90
21778;DHT22;11050;52.222;20.916;2022-09-09T17:26:30;14.80;99.90
21778;DHT22;11050;52.222;20.916;2022-09-09T17:28:59;14.80;99.90
21778;DHT22;11050;52.222;20.916;2022-09-09T17:31:27;14.70;99.90
21778;DHT22;11050;52.222;20.916;2022-09-09T17:33:55;14.70;99.90
21778;DHT22;11050;52.222;20.916;2022-09-09T17:36:27;14.70;99.90
21778;DHT22;11050;52.222;20.916;2022-09-09T17:38:55;14.70;99.90
21778;DHT22;11050;52.222;20.916;2022-09-09T17:41:23;14.60;99.90
21778;DHT22;11050;52.222;20.916;2022-09-09T17:43:52;14.60;99.90
21778;DHT22;11050;52.222;20.916;2022-09-09T17:46:23;14.60;99.90
21778;DHT22;11050;52.222;20.916;2022-09-09T17:49:00;14.60;99.90
21778;DHT22;11050;52.222;20.916;2022-09-09T17:51:29;14.50;99.90
21778;DHT22;11050;52.222;20.916;2022-09-09T17:53:59;14.50;99.90
21778;DHT22;11050;52.222;20.916;2022-09-09T17:56:31;14.50;99.90
21778;DHT22;11050;52.222;20.916;2022-09-09T17:58:59;14.50;99.90
21778;DHT22;11050;52.222;20.916;2022-09-09T18:01:28;14.50;99.90
21778;DHT22;11050;52.222;20.916;2022-09-09T18:03:58;14.40;99.90
21778;DHT22;11050;52.222;20.916;2022-09-09T18:06:28;14.40;99.90
21778;DHT22;11050;52.222;20.916;2022-09-09T18:09:00;14.40;99.90
21778;DHT22;11050;52.222;20.916;2022-09-09T18:11:31;14.40;99.90
21778;DHT22;11050;52.222;20.916;2022-09-09T18:14:01;14.40;99.90
21778;DHT22;11050;52.222;20.916;2022-09-09T18:16:30;14.40;99.90